Sinsinawa, Wisconsin
Current Conditions -  °F | °C
As of 3:53 PM on Saturday 25 Oct 2014 (Local Time) from KDBQ Reporting Station
Clear Clear  
Wind Chill: 67°   Ceiling: Unl
Heat Index: 67°   Visibility: 10mi
Dew Point: 30°   Wind: 18mph
Humidity: 25%   Direction: 310°NW
Pressure: 30.01"   Gusts: NA
Location:  42.52°N, 90.54°W
Report Text: KDBQ 252053Z 31016KT 10SM CLR 19/M01 A3001 RMK AO2 SLP159 T01941011 56010
Loading
Personal Weather Stations






























Interactive Weather Map
Tropical Storm Tracking
New forecast layout! Learn more

10-Day Weather Forecast

Advertisements
Track Severe Weather on mobile